Time;durP1;ratioP1;P1;durP2;ratioP2;P2;SDS_P1;SDS_P2;PMS_P1;PMS_P2;Temp;Humidity;BMP_temperature;BMP_pressure;BME280_temperature;BME280_humidity;BME280_pressure;Samples;Min_cycle;Max_cycle;Signal;HPM_P1;HPM_P2
2021/11/19 00:02:24;;;;;;;18.27;10.97;;;1.60;99.90;;;;;;5098441;28;20406;-79
2021/11/19 00:04:50;;;;;;;15.40;10.43;;;;;;;;;;5116765;28;20417;-79
2021/11/19 00:07:16;;;;;;;17.53;10.60;;;;;;;;;;5098087;28;20429;-78
2021/11/19 00:09:42;;;;;;;13.60;8.80;;;;;;;;;;5098264;28;20405;-78
2021/11/19 00:12:08;;;;;;;13.83;8.73;;;;;;;;;;5098694;28;20459;-78
2021/11/19 00:14:34;;;;;;;15.47;11.37;;;;;;;;;;5116826;28;20401;-78
2021/11/19 00:17:05;;;;;;;13.60;9.57;;;1.40;99.90;;;;;;5117510;28;20431;-78
2021/11/19 00:19:33;;;;;;;13.03;10.00;;;1.30;99.90;;;;;;5097987;28;20469;-78
2021/11/19 00:21:59;;;;;;;15.73;9.87;;;1.30;99.90;;;;;;5116564;28;20445;-78
2021/11/19 00:24:26;;;;;;;14.97;10.43;;;1.40;99.90;;;;;;5097616;28;20410;-78
2021/11/19 00:26:52;;;;;;;15.83;10.43;;;;;;;;;;5116471;28;20438;-79
2021/11/19 00:31:54;;;;;;;16.53;10.83;;;1.30;99.90;;;;;;5254517;22;20547;-78
2021/11/19 00:34:20;;;;;;;17.47;12.50;;;1.50;99.90;;;;;;5016791;28;20409;-78
2021/11/19 00:36:46;;;;;;;14.80;10.13;;;;;;;;;;5016739;28;20434;-78
2021/11/19 00:39:16;;;;;;;14.70;10.07;;;1.40;99.90;;;;;;5016430;28;20216;-78
2021/11/19 00:41:44;;;;;;;16.17;10.00;;;1.40;99.90;;;;;;5014135;28;20584;-78
2021/11/19 00:44:11;;;;;;;15.83;8.97;;;;;;;;;;5016046;28;20418;-77
2021/11/19 00:46:38;;;;;;;12.73;8.50;;;1.30;99.90;;;;;;5015849;28;20417;-77
2021/11/19 00:49:05;;;;;;;13.93;9.47;;;1.30;99.90;;;;;;5016235;28;20410;-78
2021/11/19 00:51:37;;;;;;;16.17;9.93;;;1.40;99.90;;;;;;5014383;28;20484;-78
2021/11/19 00:54:03;;;;;;;14.30;10.43;;;;;;;;;;5016444;28;20474;-78
2021/11/19 00:56:35;;;;;;;13.93;9.70;;;1.40;99.90;;;;;;5014292;28;20426;-78
2021/11/19 00:59:01;;;;;;;15.73;9.80;;;;;;;;;;5016667;28;20405;-78
2021/11/19 01:01:32;;;;;;;16.47;10.83;;;1.40;99.90;;;;;;5016712;28;20468;-78
2021/11/19 01:04:00;;;;;;;14.70;10.57;;;1.40;99.90;;;;;;5021254;28;20878;-78
2021/11/19 01:06:26;;;;;;;17.50;10.70;;;;;;;;;;5020623;28;20413;-77
2021/11/19 01:08:52;;;;;;;16.13;10.50;;;;;;;;;;5018009;28;20887;-78
2021/11/19 01:11:21;;;;;;;13.40;9.53;;;1.40;99.90;;;;;;5017547;28;20436;-78
2021/11/19 01:13:49;;;;;;;16.03;9.23;;;1.40;99.90;;;;;;5018927;28;20421;-77
2021/11/19 01:16:20;;;;;;;14.47;10.07;;;1.40;99.90;;;;;;5019203;28;20894;-78
2021/11/19 01:18:52;;;;;;;13.73;9.40;;;1.40;99.90;;;;;;5019055;28;20402;-78
2021/11/19 01:21:29;;;;;;;14.50;8.93;;;1.30;99.90;;;;;;5018582;28;20544;-78
2021/11/19 01:23:55;;;;;;;14.43;8.80;;;1.40;99.90;;;;;;5018231;28;20417;-78
2021/11/19 01:26:25;;;;;;;14.70;10.50;;;1.40;99.90;;;;;;5017419;28;20424;-78
2021/11/19 01:28:55;;;;;;;12.50;8.23;;;1.40;99.90;;;;;;5019006;28;20452;-78
2021/11/19 01:31:25;;;;;;;14.13;8.53;;;1.40;99.90;;;;;;5018207;28;20495;-78
2021/11/19 01:33:51;;;;;;;15.97;8.37;;;;;;;;;;5019790;28;20471;-78
2021/11/19 01:36:18;;;;;;;13.87;8.87;;;1.40;99.90;;;;;;5017879;28;20422;-78
2021/11/19 01:38:46;;;;;;;13.00;8.43;;;1.40;99.90;;;;;;5017229;28;20425;-77
2021/11/19 01:41:16;;;;;;;27.60;9.67;;;1.40;99.90;;;;;;5018397;28;20465;-78
2021/11/19 01:43:43;;;;;;;11.90;7.03;;;1.40;99.90;;;;;;5017480;28;20470;-78
2021/11/19 01:46:23;;;;;;;11.33;7.80;;;1.40;99.90;;;;;;5019352;28;20476;-80
2021/11/19 01:48:51;;;;;;;10.00;7.07;;;1.30;99.90;;;;;;5019178;28;20405;-78
2021/11/19 01:51:45;;;;;;;8.77;6.77;;;1.30;99.90;;;;;;5017816;28;20437;-78
2021/11/19 01:54:21;;;;;;;7.80;6.13;;;1.20;99.90;;;;;;5018606;28;20429;-78
2021/11/19 01:56:55;;;;;;;11.97;6.77;;;1.50;99.90;;;;;;5018778;28;20477;-78
2021/11/19 01:59:39;;;;;;;10.67;7.10;;;1.10;99.90;;;;;;5018754;28;20419;-78
2021/11/19 02:02:20;;;;;;;8.57;6.10;;;1.10;99.90;;;;;;5016234;28;20850;-78
2021/11/19 02:04:56;;;;;;;11.23;6.00;;;1.10;99.90;;;;;;5016564;28;20753;-80
2021/11/19 02:07:25;;;;;;;9.90;6.70;;;1.10;99.90;;;;;;5017514;28;20486;-78
2021/11/19 02:09:51;;;;;;;9.90;5.93;;;;;;;;;;5022999;28;20414;-77
2021/11/19 02:12:47;;;;;;;9.80;5.90;;;1.00;99.90;;;;;;5023458;28;20918;-78
2021/11/19 02:15:29;;;;;;;7.00;5.00;;;1.00;99.90;;;;;;5025431;28;20515;-78
2021/11/19 02:17:59;;;;;;;9.97;6.60;;;;;;;;;;5018036;28;20410;-78
2021/11/19 02:20:29;;;;;;;8.60;6.77;;;0.90;99.90;;;;;;5016896;28;20599;-78
2021/11/19 02:23:04;;;;;;;9.20;5.93;;;0.90;99.90;;;;;;5018695;28;20430;-77
2021/11/19 02:25:38;;;;;;;8.70;6.20;;;1.00;99.90;;;;;;5018583;28;20394;-78
2021/11/19 02:28:09;;;;;;;7.27;5.43;;;0.90;99.90;;;;;;5019134;28;20389;-78
2021/11/19 02:30:50;;;;;;;9.77;5.90;;;0.80;99.90;;;;;;5016826;28;20410;-77
2021/11/19 02:33:17;;;;;;;7.83;5.97;;;0.80;99.90;;;;;;5016815;28;20449;-78
2021/11/19 02:35:58;;;;;;;9.17;5.50;;;1.00;99.90;;;;;;5016362;28;20418;-78
2021/11/19 02:38:31;;;;;;;7.27;5.33;;;0.80;99.90;;;;;;5017699;28;20992;-78
2021/11/19 02:40:57;;;;;;;7.47;5.17;;;;;;;;;;5017776;28;20492;-78
2021/11/19 02:43:30;;;;;;;6.87;5.00;;;0.90;99.90;;;;;;5017933;28;20414;-77
2021/11/19 02:45:56;;;;;;;6.57;4.73;;;;;;;;;;5018836;28;20781;-78
2021/11/19 02:48:28;;;;;;;6.57;4.70;;;0.80;99.90;;;;;;5016977;28;20852;-78
2021/11/19 02:50:56;;;;;;;6.67;4.80;;;0.90;99.90;;;;;;5016955;28;20402;-78
2021/11/19 02:53:23;;;;;;;7.30;4.80;;;0.80;99.90;;;;;;5017627;28;20572;-78
2021/11/19 02:55:51;;;;;;;7.40;5.10;;;0.80;99.90;;;;;;5015861;28;20475;-78
2021/11/19 02:58:21;;;;;;;6.80;4.90;;;0.80;99.90;;;;;;5017297;28;20746;-78
2021/11/19 03:00:47;;;;;;;7.80;5.33;;;;;;;;;;5016960;28;20456;-78
2021/11/19 03:03:14;;;;;;;9.77;6.70;;;;;;;;;;5017424;28;20414;-78
2021/11/19 03:05:40;;;;;;;8.67;6.07;;;;;;;;;;5015581;28;20274;-78
2021/11/19 03:08:06;;;;;;;7.57;5.47;;;;;;;;;;5017355;28;20409;-78
2021/11/19 03:10:36;;;;;;;7.07;5.40;;;0.80;99.90;;;;;;5017112;28;20413;-78
2021/11/19 03:13:05;;;;;;;8.93;6.13;;;0.80;99.90;;;;;;5016862;28;20451;-78
2021/11/19 03:15:36;;;;;;;7.80;5.40;;;0.80;99.90;;;;;;5015394;28;20431;-78
2021/11/19 03:18:03;;;;;;;7.53;5.83;;;0.80;99.90;;;;;;5015241;28;20498;-78
2021/11/19 03:20:29;;;;;;;8.77;5.93;;;0.80;99.90;;;;;;5016542;28;20458;-78
2021/11/19 03:22:56;;;;;;;9.17;6.23;;;0.80;99.90;;;;;;5016839;28;20432;-79
2021/11/19 03:25:29;;;;;;;8.53;5.63;;;0.80;99.90;;;;;;5017155;28;20447;-78
2021/11/19 03:27:56;;;;;;;9.90;6.50;;;0.80;99.90;;;;;;5017283;28;20433;-78
2021/11/19 03:30:23;;;;;;;9.40;6.10;;;0.80;99.90;;;;;;5018680;28;20452;-77
2021/11/19 03:32:50;;;;;;;7.47;5.90;;;;;;;;;;5015418;28;20469;-78
2021/11/19 03:35:16;;;;;;;10.17;6.03;;;0.80;99.90;;;;;;5015151;28;20784;-78
2021/11/19 03:37:45;;;;;;;8.20;5.83;;;0.80;99.90;;;;;;5017383;28;20467;-78
2021/11/19 03:40:13;;;;;;;7.43;5.37;;;1.10;99.90;;;;;;5016450;28;20463;-78
2021/11/19 03:42:39;;;;;;;9.47;5.50;;;;;;;;;;5016094;28;20943;-78
2021/11/19 03:45:08;;;;;;;8.83;5.63;;;0.80;99.90;;;;;;5014982;28;20903;-78
2021/11/19 03:47:38;;;;;;;9.13;5.70;;;0.80;99.90;;;;;;5019036;28;20412;-78
2021/11/19 03:50:12;;;;;;;9.17;5.73;;;0.70;99.90;;;;;;5020668;28;20450;-79
2021/11/19 03:52:39;;;;;;;8.87;5.00;;;0.70;99.90;;;;;;5016158;28;20465;-78
2021/11/19 03:55:12;;;;;;;7.13;5.27;;;0.70;99.90;;;;;;5017075;28;20440;-78
2021/11/19 03:57:38;;;;;;;7.67;4.73;;;;;;;;;;5017468;28;20409;-78
2021/11/19 04:00:28;;;;;;;12.13;6.13;;;0.70;99.90;;;;;;5017594;28;20832;-79
2021/11/19 04:02:55;;;;;;;7.63;5.47;;;0.70;99.90;;;;;;5018587;28;20434;-78
2021/11/19 04:05:21;;;;;;;9.50;6.20;;;0.70;99.90;;;;;;5015981;28;20501;-78
2021/11/19 04:07:48;;;;;;;7.60;5.37;;;;;;;;;;5015764;28;20411;-78
2021/11/19 04:10:14;;;;;;;7.83;5.20;;;;;;;;;;5017574;28;20413;-78
2021/11/19 04:12:41;;;;;;;8.93;4.73;;;0.50;99.90;;;;;;5020758;28;20465;-78
2021/11/19 04:15:11;;;;;;;8.27;5.03;;;0.40;99.90;;;;;;5023815;28;20414;-78
2021/11/19 04:17:37;;;;;;;9.67;5.47;;;;;;;;;;5023126;28;20788;-78
2021/11/19 04:20:05;;;;;;;6.30;4.83;;;0.50;99.90;;;;;;5015470;28;20431;-77
2021/11/19 04:22:31;;;;;;;8.23;5.63;;;;;;;;;;5015759;28;20445;-78
2021/11/19 04:25:00;;;;;;;6.77;5.13;;;0.30;99.90;;;;;;5015666;28;20406;-78
2021/11/19 04:27:27;;;;;;;8.67;5.33;;;0.30;99.90;;;;;;5015319;28;20480;-77
2021/11/19 04:29:53;;;;;;;7.67;5.50;;;;;;;;;;5016063;28;20410;-77
2021/11/19 04:32:22;;;;;;;7.80;5.47;;;;;;;;;;5013576;28;20457;-77
2021/11/19 04:34:49;;;;;;;8.27;4.80;;;0.30;99.90;;;;;;5013753;28;20772;-78
2021/11/19 04:37:15;;;;;;;8.13;5.83;;;;;;;;;;5016093;28;20479;-78
2021/11/19 04:39:41;;;;;;;8.73;5.37;;;;;;;;;;5019130;28;20417;-77
2021/11/19 04:42:08;;;;;;;10.83;5.57;;;0.40;99.90;;;;;;5018969;28;20476;-78
2021/11/19 04:44:35;;;;;;;8.33;5.43;;;0.30;99.90;;;;;;5019101;28;20945;-78
2021/11/19 04:47:03;;;;;;;9.27;6.07;;;0.20;99.90;;;;;;5018054;28;20455;-78
2021/11/19 04:49:29;;;;;;;17.67;10.30;;;;;;;;;;5017859;28;20914;-78
2021/11/19 04:51:55;;;;;;;20.20;11.00;;;;;;;;;;5017937;28;20437;-77
2021/11/19 04:54:22;;;;;;;46.53;22.33;;;0.00;99.90;;;;;;5018140;28;20493;-78
2021/11/19 04:56:51;;;;;;;30.23;13.50;;;0.00;99.90;;;;;;5017653;28;20422;-77
2021/11/19 04:59:18;;;;;;;32.00;15.60;;;0.10;99.90;;;;;;5017694;28;20937;-77
2021/11/19 05:01:46;;;;;;;47.57;21.73;;;0.00;99.90;;;;;;5017110;28;20981;-78
2021/11/19 05:04:13;;;;;;;28.20;13.90;;;0.00;99.90;;;;;;5018816;28;20895;-77
2021/11/19 05:06:39;;;;;;;28.57;15.70;;;0.00;99.90;;;;;;5017459;28;20845;-77
2021/11/19 05:09:06;;;;;;;28.57;15.20;;;0.00;99.90;;;;;;5017687;28;20416;-77
2021/11/19 05:11:36;;;;;;;19.30;11.33;;;-0.10;99.90;;;;;;5018472;28;20859;-78
2021/11/19 05:14:04;;;;;;;17.50;10.40;;;;;;;;;;5018673;28;20919;-77
2021/11/19 05:16:30;;;;;;;19.70;9.60;;;;;;;;;;5017357;28;20431;-77
2021/11/19 05:18:56;;;;;;;20.53;13.17;;;;;;;;;;5017558;28;20445;-78
2021/11/19 05:21:23;;;;;;;15.50;9.67;;;0.00;99.90;;;;;;5017511;28;20479;-77
2021/11/19 05:23:50;;;;;;;12.07;7.83;;;0.00;99.90;;;;;;5019528;28;20413;-77
2021/11/19 05:26:16;;;;;;;11.53;7.53;;;;;;;;;;5019327;28;20497;-77
2021/11/19 05:28:42;;;;;;;9.67;5.40;;;;;;;;;;5017467;28;20413;-77
2021/11/19 05:31:09;;;;;;;11.93;5.50;;;0.10;99.90;;;;;;5017574;28;20441;-77
2021/11/19 05:33:37;;;;;;;7.00;5.30;;;0.10;99.90;;;;;;5017133;28;20484;-77
2021/11/19 05:36:03;;;;;;;6.33;3.93;;;;;;;;;;5017998;28;20413;-77
2021/11/19 05:38:29;;;;;;;9.17;5.57;;;;;;;;;;5016829;28;20923;-78
2021/11/19 05:40:55;;;;;;;7.80;5.07;;;;;;;;;;5018042;28;20484;-77
2021/11/19 05:43:22;;;;;;;7.87;5.80;;;-0.10;99.90;;;;;;5016506;28;20417;-78
2021/11/19 05:45:48;;;;;;;11.80;6.43;;;;;;;;;;5018492;28;20409;-78
2021/11/19 05:48:14;;;;;;;11.87;7.27;;;-0.20;99.90;;;;;;5018536;28;20424;-78
2021/11/19 05:50:43;;;;;;;8.10;5.93;;;-0.20;99.90;;;;;;5019857;28;20215;-78
2021/11/19 05:53:09;;;;;;;10.27;5.70;;;;;;;;;;5019637;28;20175;-77
2021/11/19 05:55:39;;;;;;;7.60;4.37;;;-0.10;99.90;;;;;;5018434;28;20410;-78
2021/11/19 05:58:05;;;;;;;8.40;5.13;;;;;;;;;;5017697;28;20423;-78
2021/11/19 06:00:37;;;;;;;8.70;5.43;;;0.00;99.90;;;;;;5017830;28;20462;-78
2021/11/19 06:03:03;;;;;;;8.33;4.77;;;;;;;;;;5020155;28;20435;-78
2021/11/19 06:05:29;;;;;;;6.77;4.73;;;;;;;;;;5029913;28;20466;-79
2021/11/19 06:07:55;;;;;;;6.17;4.43;;;;;;;;;;5031207;28;20436;-78
2021/11/19 06:10:27;;;;;;;6.33;4.33;;;;;;;;;;5027460;28;20460;-78
2021/11/19 06:12:59;;;;;;;6.17;4.40;;;-0.10;99.90;;;;;;5016924;28;20525;-78
2021/11/19 06:15:32;;;;;;;6.50;4.33;;;0.00;99.90;;;;;;5018040;28;20448;-78
2021/11/19 06:18:16;;;;;;;8.57;4.83;;;0.00;99.90;;;;;;5017437;28;20410;-78
2021/11/19 06:21:00;;;;;;;4.90;3.33;;;-0.10;99.90;;;;;;5004744;28;20449;-78
2021/11/19 06:23:31;;;;;;;6.50;3.90;;;0.00;99.90;;;;;;5033358;28;20431;-78
2021/11/19 06:25:58;;;;;;;6.07;4.03;;;;;;;;;;5016386;28;20422;-78
2021/11/19 06:28:35;;;;;;;8.60;5.17;;;0.00;99.90;;;;;;5016337;28;20414;-77
2021/11/19 06:31:02;;;;;;;6.20;4.30;;;;;;;;;;5015925;28;20529;-78
2021/11/19 06:33:28;;;;;;;6.47;4.40;;;0.00;99.90;;;;;;5016028;28;20781;-79
2021/11/19 06:35:54;;;;;;;6.60;5.10;;;;;;;;;;5014445;28;20453;-77
2021/11/19 06:38:21;;;;;;;7.30;4.87;;;;;;;;;;5015916;28;20910;-78
2021/11/19 06:40:47;;;;;;;6.50;4.63;;;-0.10;99.90;;;;;;5015564;28;20520;-78
2021/11/19 06:43:13;;;;;;;4.53;3.70;;;-0.10;99.90;;;;;;5015630;28;20941;-78
2021/11/19 06:45:40;;;;;;;8.43;4.47;;;;;;;;;;5015080;28;20414;-77
2021/11/19 06:48:06;;;;;;;4.87;3.87;;;;;;;;;;5015933;28;20417;-78
2021/11/19 06:50:38;;;;;;;9.37;3.40;;;0.00;99.90;;;;;;5017017;28;20413;-77
2021/11/19 06:53:05;;;;;;;4.40;2.90;;;0.10;99.90;;;;;;5018074;28;20755;-78
2021/11/19 06:55:32;;;;;;;5.40;3.83;;;0.20;99.90;;;;;;5016898;28;20835;-78
2021/11/19 06:57:58;;;;;;;6.30;3.63;;;;;;;;;;5015973;28;20927;-78
2021/11/19 07:00:34;;;;;;;4.50;3.30;;;0.30;99.90;;;;;;5015861;28;20453;-77
2021/11/19 07:03:00;;;;;;;4.63;2.90;;;;;;;;;;5016668;28;20436;-78
2021/11/19 07:05:27;;;;;;;3.50;2.90;;;0.50;99.90;;;;;;5016688;28;20402;-78
2021/11/19 07:07:53;;;;;;;3.63;2.73;;;;;;;;;;5015479;28;20956;-78
2021/11/19 07:10:21;;;;;;;4.60;2.93;;;0.50;99.90;;;;;;5017487;28;20420;-79
2021/11/19 07:12:47;;;;;;;4.23;3.27;;;;;;;;;;5016781;28;20488;-78
2021/11/19 07:15:16;;;;;;;4.13;2.83;;;0.70;99.90;;;;;;5016526;28;20413;-78
2021/11/19 07:17:42;;;;;;;4.47;3.17;;;;;;;;;;5017250;28;20417;-78
2021/11/19 07:20:11;;;;;;;8.13;3.40;;;0.60;99.90;;;;;;5017327;28;20418;-79
2021/11/19 07:22:37;;;;;;;4.57;3.10;;;;;;;;;;5016878;28;20464;-78
2021/11/19 07:25:03;;;;;;;4.67;3.53;;;;;;;;;;5017292;28;20410;-78
2021/11/19 07:27:29;;;;;;;7.97;4.50;;;;;;;;;;5017741;28;20406;-78
2021/11/19 07:29:55;;;;;;;6.50;3.50;;;;;;;;;;5016375;28;20414;-79
2021/11/19 07:32:21;;;;;;;7.83;4.30;;;0.80;99.90;;;;;;5016239;28;20465;-78
2021/11/19 07:34:46;;;;;;;5.57;4.00;;;0.90;99.90;;;;;;5016381;28;20183;-78
2021/11/19 07:37:12;;;;;;;6.97;4.30;;;;;;;;;;5017182;28;20269;-78
2021/11/19 07:39:38;;;;;;;7.33;4.97;;;;;;;;;;5017190;28;20198;-78
2021/11/19 07:42:05;;;;;;;10.57;7.67;;;1.40;99.90;;;;;;5015131;28;20473;-78
2021/11/19 07:44:31;;;;;;;7.40;5.53;;;;;;;;;;5017122;28;20502;-78
2021/11/19 07:46:57;;;;;;;5.13;4.50;;;;;;;;;;5017367;28;20410;-78
2021/11/19 07:49:23;;;;;;;8.73;6.90;;;;;;;;;;5017393;28;20915;-78
2021/11/19 07:51:51;;;;;;;10.40;5.23;;;2.10;99.90;;;;;;5015692;28;20459;-79
2021/11/19 07:54:17;;;;;;;9.23;5.47;;;;;;;;;;5032416;28;20429;-79
2021/11/19 07:56:45;;;;;;;8.20;4.37;;;2.20;99.90;;;;;;5017075;28;20409;-79
2021/11/19 07:59:11;;;;;;;6.37;3.67;;;;;;;;;;5016247;28;20422;-79
2021/11/19 08:01:38;;;;;;;5.57;4.13;;;2.80;99.90;;;;;;5017405;28;20565;-79
2021/11/19 08:04:04;;;;;;;7.60;5.43;;;2.80;99.90;;;;;;5023090;28;20179;-78
2021/11/19 08:06:30;;;;;;;19.07;11.87;;;3.20;99.90;;;;;;5033457;28;20759;-78
2021/11/19 08:08:57;;;;;;;22.00;13.23;;;;;;;;;;5033997;28;20420;-78
2021/11/19 08:11:23;;;;;;;9.00;4.93;;;3.70;99.90;;;;;;5032233;28;20441;-78
2021/11/19 08:13:50;;;;;;;6.37;4.00;;;3.90;99.90;;;;;;5018885;28;20937;-79
2021/11/19 08:16:17;;;;;;;6.50;3.33;;;3.90;99.90;;;;;;5019083;28;20437;-79
2021/11/19 08:18:47;;;;;;;4.27;3.27;;;3.80;99.90;;;;;;5016947;28;20422;-79
2021/11/19 08:21:13;;;;;;;4.77;3.30;;;3.70;99.90;;;;;;5016535;28;20461;-78
2021/11/19 08:23:46;;;;;;;7.67;4.73;;;3.40;99.90;;;;;;4998724;28;20492;-78
2021/11/19 08:26:25;;;;;;;7.60;3.93;;;3.40;99.90;;;;;;5014063;28;20417;-78
2021/11/19 08:28:51;;;;;;;8.53;4.03;;;3.40;99.90;;;;;;5013461;28;20414;-78
2021/11/19 08:31:20;;;;;;;4.27;3.83;;;3.70;99.90;;;;;;5014470;28;20487;-79
2021/11/19 08:33:48;;;;;;;10.37;6.67;;;4.00;99.90;;;;;;5015390;28;20464;-79
2021/11/19 08:36:15;;;;;;;5.10;3.60;;;4.10;99.90;;;;;;5015402;28;20428;-79
2021/11/19 08:38:42;;;;;;;6.80;4.00;;;4.40;99.90;;;;;;5017378;28;20755;-79
2021/11/19 08:41:09;;;;;;;3.87;2.90;;;4.70;99.90;;;;;;5016290;28;20232;-78
2021/11/19 08:43:37;;;;;;;6.60;2.83;;;4.70;99.90;;;;;;5016582;28;20171;-78
2021/11/19 08:46:06;;;;;;;21.87;12.33;;;4.60;99.90;;;;;;5016603;28;20273;-78
2021/11/19 08:48:34;;;;;;;26.97;15.30;;;4.60;99.90;;;;;;5015618;28;20482;-79
2021/11/19 08:51:05;;;;;;;27.30;15.67;;;4.90;99.90;;;;;;5016109;28;20205;-79
2021/11/19 08:53:32;;;;;;;38.87;22.70;;;5.50;99.90;;;;;;5015531;28;20260;-79
2021/11/19 08:55:59;;;;;;;43.80;24.87;;;6.00;99.90;;;;;;5016277;28;20195;-79
2021/11/19 08:58:37;;;;;;;21.50;12.73;;;6.50;99.90;;;;;;5015055;28;20182;-79
2021/11/19 09:01:05;;;;;;;24.83;13.93;;;6.90;99.90;;;;;;5016115;28;20747;-79
2021/11/19 09:03:32;;;;;;;7.67;5.20;;;6.90;99.90;;;;;;5014936;28;20183;-79
2021/11/19 09:05:58;;;;;;;10.63;6.77;;;6.40;99.90;;;;;;5015140;28;20183;-79
2021/11/19 09:08:26;;;;;;;4.77;2.80;;;6.00;99.90;;;;;;5016187;28;20201;-79
2021/11/19 09:10:55;;;;;;;76.80;45.03;;;5.40;99.90;;;;;;5016481;28;20186;-79
2021/11/19 09:13:22;;;;;;;7.33;3.70;;;5.70;99.90;;;;;;5014670;28;20245;-78
2021/11/19 09:15:49;;;;;;;3.17;1.97;;;5.90;99.90;;;;;;5016744;28;20186;-79
2021/11/19 09:18:24;;;;;;;2.43;2.23;;;5.70;99.90;;;;;;5016821;28;20179;-79
2021/11/19 09:21:13;;;;;;;2.80;2.30;;;5.90;99.90;;;;;;5016453;28;20676;-79
2021/11/19 09:23:50;;;;;;;3.63;2.40;;;6.20;99.90;;;;;;5017706;28;20165;-79
2021/11/19 09:26:21;;;;;;;13.27;7.57;;;6.50;99.90;;;;;;5035681;28;20178;-79
2021/11/19 09:28:51;;;;;;;7.60;4.57;;;6.80;99.90;;;;;;5020346;28;20239;-79
2021/11/19 09:31:19;;;;;;;5.10;3.80;;;7.20;99.90;;;;;;5020138;28;20202;-79
2021/11/19 09:33:46;;;;;;;5.90;3.37;;;7.70;99.90;;;;;;5019950;28;20241;-79
2021/11/19 09:36:12;;;;;;;7.30;4.07;;;8.20;99.90;;;;;;5020341;28;20254;-79
2021/11/19 09:38:38;;;;;;;3.93;3.00;;;8.50;99.90;;;;;;5020110;28;20206;-79
2021/11/19 09:41:39;;;;;;;3.10;2.30;;;8.70;99.90;;;;;;5020087;28;20213;-79
2021/11/19 09:44:14;;;;;;;8.50;6.47;;;8.90;99.90;;;;;;5035798;28;20233;-79
2021/11/19 09:47:10;;;;;;;2.87;2.33;;;9.00;99.90;;;;;;5018778;28;20174;-79
2021/11/19 09:49:53;;;;;;;2.87;2.40;;;9.20;99.90;;;;;;5020273;28;20163;-79
2021/11/19 09:52:58;;;;;;;3.37;2.33;;;9.40;99.90;;;;;;5018516;28;20202;-79
2021/11/19 09:56:16;;;;;;;3.60;2.93;;;9.40;99.90;;;;;;5018391;28;20216;-80
2021/11/19 09:58:56;;;;;;;4.23;2.53;;;9.90;99.90;;;;;;4998643;28;20187;-80
2021/11/19 10:01:41;;;;;;;2.60;2.27;;;10.40;99.90;;;;;;5014954;28;20253;-80
2021/11/19 10:04:15;;;;;;;2.70;2.20;;;10.60;99.90;;;;;;5030720;28;20175;-79
2021/11/19 10:06:51;;;;;;;4.27;2.47;;;10.70;99.90;;;;;;5032230;28;20207;-79
2021/11/19 10:09:38;;;;;;;4.23;2.43;;;10.70;99.90;;;;;;5033085;28;20229;-79
2021/11/19 10:12:15;;;;;;;4.57;2.93;;;10.60;99.90;;;;;;5031270;28;20214;-79
2021/11/19 10:14:42;;;;;;;4.53;2.30;;;10.20;99.90;;;;;;5019990;28;20608;-80
2021/11/19 10:17:37;;;;;;;5.13;2.60;;;10.10;99.90;;;;;;5019289;28;20171;-80
2021/11/19 10:20:09;;;;;;;4.77;2.87;;;10.00;99.90;;;;;;5017841;28;20183;-80
2021/11/19 10:22:40;;;;;;;5.77;2.87;;;10.10;99.90;;;;;;5019798;28;20684;-79
2021/11/19 10:25:27;;;;;;;4.80;2.60;;;10.10;99.90;;;;;;5019382;28;20181;-80
2021/11/19 10:27:56;;;;;;;3.20;2.60;;;10.10;99.90;;;;;;5018386;28;20167;-79
2021/11/19 10:30:40;;;;;;;6.23;3.30;;;9.70;99.90;;;;;;5018394;28;20179;-80
2021/11/19 10:33:24;;;;;;;5.37;3.20;;;9.50;99.90;;;;;;5018388;28;20225;-79
2021/11/19 10:36:17;;;;;;;11.40;3.03;;;9.40;99.90;;;;;;5021149;28;20167;-80
2021/11/19 10:39:16;;;;;;;2.87;2.50;;;9.40;99.90;;;;;;5020274;28;20174;-80
2021/11/19 10:42:20;;;;;;;4.17;2.47;;;9.40;99.90;;;;;;5020361;28;20206;-79
2021/11/19 10:44:54;;;;;;;2.77;2.23;;;9.50;99.90;;;;;;5018192;28;20170;-79
2021/11/19 10:47:42;;;;;;;4.23;2.43;;;9.80;99.90;;;;;;5016851;28;20170;-79
2021/11/19 10:50:43;;;;;;;4.60;2.83;;;10.30;99.90;;;;;;5016708;28;20175;-79
2021/11/19 10:53:33;;;;;;;4.40;2.43;;;10.80;99.90;;;;;;5018426;28;20254;-79
2021/11/19 10:56:38;;;;;;;7.03;3.80;;;11.10;99.90;;;;;;5016821;28;20175;-79
2021/11/19 10:59:27;;;;;;;4.80;2.60;;;11.30;99.90;;;;;;5018468;28;20523;-79
2021/11/19 11:02:33;;;;;;;6.43;3.43;;;11.20;99.90;;;;;;5017293;28;20663;-80
2021/11/19 11:05:00;;;;;;;6.60;3.67;;;11.20;99.90;;;;;;5016222;28;20175;-79
2021/11/19 11:07:38;;;;;;;4.00;2.73;;;11.10;99.90;;;;;;5017502;28;20604;-79
2021/11/19 11:10:16;;;;;;;7.60;3.27;;;11.10;99.90;;;;;;5017035;28;20571;-79
2021/11/19 11:12:51;;;;;;;5.27;3.37;;;11.00;99.90;;;;;;5016261;28;20206;-80
2021/11/19 11:15:19;;;;;;;4.63;3.33;;;10.90;99.90;;;;;;5016303;28;20174;-81
2021/11/19 11:17:55;;;;;;;3.80;2.70;;;10.90;99.90;;;;;;5015663;28;20179;-80
2021/11/19 11:20:50;;;;;;;8.57;3.20;;;10.80;99.90;;;;;;5017008;28;20187;-80
2021/11/19 11:23:43;;;;;;;4.03;3.13;;;10.60;99.90;;;;;;5008450;28;20183;-79
2021/11/19 11:26:16;;;;;;;4.73;3.93;;;10.40;99.90;;;;;;5015984;28;20628;-79
2021/11/19 11:28:47;;;;;;;7.03;3.30;;;10.30;99.90;;;;;;5016384;28;20616;-79
2021/11/19 11:31:37;;;;;;;6.07;3.10;;;10.00;99.90;;;;;;5016642;28;20195;-80
2021/11/19 11:34:34;;;;;;;4.87;3.30;;;10.00;99.90;;;;;;5016512;28;20194;-80
2021/11/19 11:37:11;;;;;;;4.60;3.13;;;9.90;99.90;;;;;;5017563;28;20163;-80
2021/11/19 11:39:48;;;;;;;10.57;6.83;;;9.90;99.90;;;;;;5016676;28;20174;-80
2021/11/19 11:42:26;;;;;;;14.03;9.10;;;10.20;99.90;;;;;;5032680;28;20675;-80
2021/11/19 11:44:55;;;;;;;8.63;6.23;;;10.50;99.90;;;;;;5017867;28;20690;-80
2021/11/19 11:47:50;;;;;;;6.70;4.23;;;10.90;99.90;;;;;;5015392;28;20644;-80
2021/11/19 11:50:48;;;;;;;5.97;4.50;;;10.80;99.90;;;;;;5016773;28;20147;-80
2021/11/19 11:53:21;;;;;;;9.13;5.07;;;11.10;99.90;;;;;;5016701;28;20166;-80
2021/11/19 11:56:19;;;;;;;5.70;3.67;;;11.10;99.90;;;;;;5017906;28;20178;-80
2021/11/19 11:59:05;;;;;;;3.10;2.47;;;11.30;99.90;;;;;;5017824;28;20160;-80
2021/11/19 12:01:43;;;;;;;10.50;5.87;;;11.50;99.90;;;;;;5018730;28;20225;-80
2021/11/19 12:04:13;;;;;;;5.23;3.83;;;11.20;99.90;;;;;;5031883;28;20613;-79
2021/11/19 12:06:57;;;;;;;22.97;9.87;;;11.30;99.90;;;;;;5031580;28;20171;-79
2021/11/19 12:09:39;;;;;;;11.97;7.23;;;11.40;99.90;;;;;;5022734;28;20179;-80
2021/11/19 12:12:30;;;;;;;32.87;17.67;;;11.50;99.90;;;;;;5017128;28;20194;-81
2021/11/19 12:15:42;;;;;;;18.13;11.37;;;11.60;99.90;;;;;;5017079;28;20189;-81
2021/11/19 12:18:28;;;;;;;5.30;4.00;;;11.50;99.90;;;;;;4998781;28;20190;-80
2021/11/19 12:21:37;;;;;;;4.17;3.47;;;11.20;99.90;;;;;;5017455;28;20561;-79
2021/11/19 12:24:51;;;;;;;6.43;4.23;;;11.00;99.90;;;;;;5008064;28;20187;-80
2021/11/19 12:27:27;;;;;;;3.63;2.97;;;10.70;99.90;;;;;;5015607;28;20187;-80
2021/11/19 12:29:58;;;;;;;10.00;5.50;;;10.40;99.90;;;;;;5016084;28;20171;-80
2021/11/19 12:32:36;;;;;;;7.67;6.07;;;10.20;99.90;;;;;;5016584;28;20224;-80
2021/11/19 12:35:23;;;;;;;12.43;9.00;;;10.20;99.90;;;;;;5016356;28;20264;-80
2021/11/19 12:38:00;;;;;;;6.23;3.17;;;10.30;99.90;;;;;;5016917;28;20191;-82
2021/11/19 12:40:28;;;;;;;4.63;3.10;;;10.10;99.90;;;;;;5016639;28;20171;-83
2021/11/19 12:43:37;;;;;;;6.50;4.37;;;9.80;99.90;;;;;;5017454;28;20191;-81
2021/11/19 12:46:31;;;;;;;5.63;4.40;;;9.80;99.90;;;;;;4989863;28;20206;-82
2021/11/19 12:49:05;;;;;;;4.83;3.77;;;9.90;99.90;;;;;;5015675;28;20256;-81
2021/11/19 12:51:47;;;;;;;16.60;9.30;;;9.90;99.90;;;;;;5017245;28;20488;-82
2021/11/19 12:54:36;;;;;;;23.90;13.90;;;9.80;99.90;;;;;;5016359;28;20178;-81
2021/11/19 12:57:30;;;;;;;21.50;13.27;;;9.70;99.90;;;;;;5016675;28;20167;-80
2021/11/19 12:59:59;;;;;;;10.43;5.57;;;9.80;99.90;;;;;;5024048;28;20187;-80
2021/11/19 13:02:44;;;;;;;8.87;4.63;;;9.90;99.90;;;;;;5024602;28;20211;-83
2021/11/19 13:05:13;;;;;;;5.63;2.57;;;9.70;99.90;;;;;;5026217;28;20241;-79
2021/11/19 13:07:45;;;;;;;5.07;2.83;;;9.80;99.90;;;;;;5020960;28;20178;-81
2021/11/19 13:10:16;;;;;;;2.70;2.50;;;9.80;99.90;;;;;;5019427;28;20603;-81
2021/11/19 13:13:16;;;;;;;3.27;2.97;;;9.80;99.90;;;;;;5021140;28;20205;-79
2021/11/19 13:15:52;;;;;;;5.57;2.90;;;9.60;99.90;;;;;;5018960;28;20246;-80
2021/11/19 13:18:39;;;;;;;3.47;2.20;;;9.60;99.90;;;;;;5020927;28;20182;-80
2021/11/19 13:21:30;;;;;;;7.50;4.63;;;9.60;99.90;;;;;;5020340;28;20202;-79
2021/11/19 13:23:58;;;;;;;6.30;4.13;;;9.60;99.90;;;;;;5020679;28;20217;-79
2021/11/19 13:26:26;;;;;;;2.63;2.17;;;9.80;99.90;;;;;;5018352;28;20178;-80
2021/11/19 13:28:54;;;;;;;5.80;2.70;;;9.90;99.90;;;;;;5020818;28;20181;-80
2021/11/19 13:31:30;;;;;;;5.33;3.17;;;9.90;99.90;;;;;;5020117;28;20205;-80
2021/11/19 13:34:05;;;;;;;6.87;2.83;;;9.90;99.90;;;;;;5018571;28;20174;-80
2021/11/19 13:36:42;;;;;;;11.00;4.70;;;9.90;99.90;;;;;;5018556;28;20190;-80
2021/11/19 13:39:32;;;;;;;6.27;3.83;;;9.90;99.90;;;;;;5020396;28;20246;-79
2021/11/19 13:42:07;;;;;;;5.13;3.13;;;9.80;99.90;;;;;;5019375;28;21246;-80
2021/11/19 13:45:07;;;;;;;7.97;3.10;;;9.70;99.90;;;;;;5020627;28;20213;-80
2021/11/19 13:47:50;;;;;;;4.00;2.53;;;9.70;99.90;;;;;;5019371;28;20179;-80